Time;durP1;ratioP1;P1;durP2;ratioP2;P2;SDS_P1;SDS_P2;PMS_P1;PMS_P2;Temp;Humidity;BMP_temperature;BMP_pressure;BME280_temperature;BME280_humidity;BME280_pressure;Samples;Min_cycle;Max_cycle;Signal;HPM_P1;HPM_P2
2022/05/12 00:01:10;;;;;;;4.60;1.38;;;19.80;56.60;;;;;;4479122;31;20092;-75
2022/05/12 00:03:36;;;;;;;5.65;1.17;;;19.80;56.60;;;;;;4477933;32;20155;-75
2022/05/12 00:06:03;;;;;;;4.95;1.30;;;19.80;56.60;;;;;;4478870;32;20121;-75
2022/05/12 00:08:29;;;;;;;4.55;1.50;;;19.70;56.50;;;;;;4478959;31;20160;-75
2022/05/12 00:10:55;;;;;;;4.00;1.30;;;19.80;56.60;;;;;;4479152;31;20128;-75
2022/05/12 00:13:21;;;;;;;3.10;1.00;;;19.80;56.60;;;;;;4478942;31;20387;-74
2022/05/12 00:15:48;;;;;;;3.55;0.90;;;19.80;56.50;;;;;;4478961;31;20121;-75
2022/05/12 00:18:14;;;;;;;3.30;0.90;;;19.80;56.60;;;;;;4478826;32;20383;-75
2022/05/12 00:20:41;;;;;;;2.97;0.98;;;19.70;56.50;;;;;;4478499;31;20414;-75
2022/05/12 00:23:10;;;;;;;2.40;1.08;;;19.80;56.60;;;;;;4478745;31;20077;-74
2022/05/12 00:25:36;;;;;;;3.58;1.10;;;19.70;56.50;;;;;;4478953;31;20077;-75
2022/05/12 00:28:03;;;;;;;4.00;1.10;;;19.70;56.50;;;;;;4478912;31;20351;-75
2022/05/12 00:30:29;;;;;;;2.83;1.10;;;19.80;56.50;;;;;;4478647;31;20512;-75
2022/05/12 00:32:55;;;;;;;2.72;1.00;;;19.70;56.40;;;;;;4478899;31;20077;-75
2022/05/12 00:35:21;;;;;;;5.20;1.52;;;19.70;56.50;;;;;;4478455;31;20096;-74
2022/05/12 00:37:47;;;;;;;5.20;1.38;;;19.70;56.40;;;;;;4478542;31;20069;-75
2022/05/12 00:40:15;;;;;;;3.13;1.00;;;19.70;56.40;;;;;;4477751;31;20109;-75
2022/05/12 00:43:05;;;;;;;3.25;1.10;;;19.70;56.40;;;;;;4478462;31;20131;-74
2022/05/12 00:45:35;;;;;;;3.42;1.17;;;19.70;56.40;;;;;;4479009;32;20103;-75
2022/05/12 00:48:03;;;;;;;2.78;1.10;;;19.70;56.40;;;;;;4478360;32;20422;-74
2022/05/12 00:50:35;;;;;;;2.78;0.82;;;19.70;56.40;;;;;;4478508;31;20187;-74
2022/05/12 00:53:04;;;;;;;4.68;1.15;;;19.70;56.40;;;;;;4478469;31;20070;-74
2022/05/12 00:55:36;;;;;;;4.07;1.05;;;19.70;56.40;;;;;;4478480;32;20077;-75
2022/05/12 00:58:06;;;;;;;2.53;1.25;;;19.70;56.40;;;;;;4478274;31;20163;-75
2022/05/12 01:00:32;;;;;;;2.45;0.82;;;19.70;56.40;;;;;;4478154;31;20101;-75
2022/05/12 01:03:03;;;;;;;2.80;0.80;;;19.70;56.40;;;;;;4478228;32;20076;-74
2022/05/12 01:05:30;;;;;;;2.22;0.68;;;19.70;56.40;;;;;;4478638;31;20073;-78
2022/05/12 01:07:57;;;;;;;3.72;0.98;;;19.70;56.40;;;;;;4477758;31;20073;-74
2022/05/12 01:10:25;;;;;;;1.88;0.80;;;19.70;56.40;;;;;;4477848;31;20074;-75
2022/05/12 01:12:51;;;;;;;2.85;0.82;;;19.60;56.30;;;;;;4478280;31;20101;-75
2022/05/12 01:15:21;;;;;;;2.22;0.82;;;19.60;56.30;;;;;;4477739;31;20073;-75
2022/05/12 01:17:47;;;;;;;1.75;0.77;;;19.70;56.30;;;;;;4477598;32;20081;-74
2022/05/12 01:20:14;;;;;;;2.08;0.77;;;19.60;56.30;;;;;;4478053;31;20167;-74
2022/05/12 01:23:06;;;;;;;3.38;0.95;;;19.70;56.30;;;;;;4478214;31;20077;-74
2022/05/12 01:25:32;;;;;;;2.95;1.00;;;19.60;56.20;;;;;;4478025;32;20112;-76
2022/05/12 01:27:58;;;;;;;2.95;0.88;;;19.60;56.20;;;;;;4477550;32;20057;-74
2022/05/12 01:30:25;;;;;;;2.45;0.60;;;19.60;56.30;;;;;;4477924;31;20081;-75
2022/05/12 01:32:51;;;;;;;1.08;0.60;;;19.60;56.30;;;;;;4477973;31;20082;-75
2022/05/12 01:35:24;;;;;;;2.38;0.93;;;19.60;56.30;;;;;;4477975;31;20062;-75
2022/05/12 01:37:50;;;;;;;3.17;0.80;;;19.60;56.30;;;;;;4477470;32;20100;-75
2022/05/12 01:40:19;;;;;;;2.95;0.98;;;19.60;56.20;;;;;;4477627;31;20108;-75
2022/05/12 01:42:45;;;;;;;4.55;1.17;;;19.60;56.20;;;;;;4477676;31;20285;-74
2022/05/12 01:45:11;;;;;;;2.15;0.90;;;19.60;56.20;;;;;;4476205;32;20093;-75
2022/05/12 01:47:38;;;;;;;2.15;0.80;;;19.60;56.20;;;;;;4477104;32;20139;-75
2022/05/12 01:50:07;;;;;;;2.95;1.00;;;19.60;56.20;;;;;;4477387;31;20506;-74
2022/05/12 01:52:33;;;;;;;1.35;0.70;;;19.60;56.20;;;;;;4476322;32;20077;-75
2022/05/12 01:54:59;;;;;;;3.40;0.88;;;19.60;56.20;;;;;;4476346;32;20511;-74
2022/05/12 01:57:25;;;;;;;2.13;1.00;;;19.60;56.20;;;;;;4476467;32;20061;-75
2022/05/12 01:59:51;;;;;;;4.03;0.80;;;19.60;56.20;;;;;;4477390;32;20124;-74
2022/05/12 02:02:17;;;;;;;1.58;0.63;;;19.60;56.20;;;;;;4475998;32;20081;-75
2022/05/12 02:04:43;;;;;;;1.48;0.70;;;19.60;56.20;;;;;;4477255;31;20105;-75
2022/05/12 02:07:09;;;;;;;1.35;0.70;;;19.60;56.20;;;;;;4477322;31;20399;-74
2022/05/12 02:09:35;;;;;;;2.60;0.77;;;19.50;56.10;;;;;;4477065;31;20062;-75
2022/05/12 02:12:02;;;;;;;2.45;0.85;;;19.50;56.20;;;;;;4477141;31;20066;-74
2022/05/12 02:14:28;;;;;;;1.90;0.60;;;19.50;56.10;;;;;;4477224;31;20297;-75
2022/05/12 02:16:55;;;;;;;1.77;0.85;;;19.50;56.20;;;;;;4477204;31;20080;-75
2022/05/12 02:19:21;;;;;;;2.40;0.70;;;19.50;56.20;;;;;;4476758;31;20053;-75
2022/05/12 02:21:47;;;;;;;3.28;0.90;;;19.50;56.10;;;;;;4477284;31;20070;-74
2022/05/12 02:24:12;;;;;;;2.85;0.73;;;19.50;56.10;;;;;;4476978;31;20139;-74
2022/05/12 02:26:38;;;;;;;1.50;0.60;;;19.50;56.10;;;;;;4477172;31;20127;-75
2022/05/12 02:29:04;;;;;;;2.53;0.82;;;19.50;56.10;;;;;;4476693;31;20084;-75
2022/05/12 02:31:30;;;;;;;0.85;0.45;;;19.50;56.10;;;;;;4475538;32;20077;-75
2022/05/12 02:33:56;;;;;;;1.45;0.40;;;19.50;56.10;;;;;;4477099;31;20179;-75
2022/05/12 02:36:22;;;;;;;2.88;0.80;;;19.50;56.10;;;;;;4476559;31;20073;-75
2022/05/12 02:38:48;;;;;;;2.58;0.70;;;19.50;56.10;;;;;;4475605;32;20062;-75
2022/05/12 02:41:14;;;;;;;2.08;0.73;;;19.50;56.10;;;;;;4476530;31;20491;-75
2022/05/12 02:43:40;;;;;;;1.83;0.60;;;19.50;56.10;;;;;;4476950;32;20070;-74
2022/05/12 02:46:09;;;;;;;2.63;0.70;;;19.50;56.00;;;;;;4476550;31;20174;-75
2022/05/12 02:48:41;;;;;;;1.35;0.65;;;19.50;56.00;;;;;;4476585;31;20096;-75
2022/05/12 02:51:08;;;;;;;1.92;0.55;;;19.50;56.00;;;;;;4476590;32;20069;-75
2022/05/12 02:53:36;;;;;;;3.25;0.47;;;19.50;56.00;;;;;;4476761;31;20081;-75
2022/05/12 02:56:02;;;;;;;4.50;0.85;;;19.50;56.00;;;;;;4475962;32;20076;-75
2022/05/12 02:58:31;;;;;;;1.95;0.68;;;19.40;56.00;;;;;;4475577;32;20420;-75
2022/05/12 03:00:57;;;;;;;2.40;0.70;;;19.50;56.00;;;;;;4476658;31;20084;-76
2022/05/12 03:03:23;;;;;;;1.40;0.50;;;19.50;56.00;;;;;;4476520;31;20696;-74
2022/05/12 03:05:51;;;;;;;1.85;0.70;;;19.40;55.90;;;;;;4476198;32;20089;-74
2022/05/12 03:08:18;;;;;;;1.42;0.50;;;19.40;56.00;;;;;;4476041;32;20070;-76
2022/05/12 03:10:45;;;;;;;1.17;0.55;;;19.40;55.90;;;;;;4475971;31;20548;-75
2022/05/12 03:13:11;;;;;;;1.08;0.52;;;19.40;55.90;;;;;;4475228;32;20591;-74
2022/05/12 03:15:37;;;;;;;1.42;0.57;;;19.40;55.90;;;;;;4475884;32;20223;-77
2022/05/12 03:18:04;;;;;;;1.38;0.55;;;19.40;56.00;;;;;;4475929;32;20109;-74
2022/05/12 03:20:33;;;;;;;3.17;0.90;;;19.40;56.00;;;;;;4476014;32;20179;-75
2022/05/12 03:22:59;;;;;;;1.52;0.50;;;19.40;55.90;;;;;;4476166;32;20132;-75
2022/05/12 03:25:25;;;;;;;1.38;0.68;;;19.40;55.90;;;;;;4476471;32;20489;-75
2022/05/12 03:27:51;;;;;;;1.05;0.40;;;19.40;55.90;;;;;;4476111;32;20584;-75
2022/05/12 03:30:20;;;;;;;1.25;0.70;;;19.40;55.90;;;;;;4475162;32;20081;-75
2022/05/12 03:32:47;;;;;;;1.33;0.60;;;19.40;55.90;;;;;;4476377;32;20078;-74
2022/05/12 03:35:13;;;;;;;4.72;0.35;;;19.40;55.90;;;;;;4476256;32;20117;-74
2022/05/12 03:37:41;;;;;;;1.55;0.50;;;19.40;56.00;;;;;;4476067;32;20085;-75
2022/05/12 03:40:10;;;;;;;1.23;0.40;;;19.40;55.90;;;;;;4475771;32;20514;-74
2022/05/12 03:42:36;;;;;;;1.10;0.40;;;19.40;55.90;;;;;;4476169;32;20154;-76
2022/05/12 03:45:02;;;;;;;1.10;0.40;;;19.40;55.90;;;;;;4476095;32;20097;-75
2022/05/12 03:47:32;;;;;;;2.13;0.57;;;19.40;55.90;;;;;;4476103;32;20088;-74
2022/05/12 03:50:02;;;;;;;1.38;0.40;;;19.40;55.90;;;;;;4476081;32;20132;-74
2022/05/12 03:52:29;;;;;;;1.23;0.60;;;19.40;56.00;;;;;;4476475;32;20215;-75
2022/05/12 03:54:56;;;;;;;1.33;0.40;;;19.40;55.90;;;;;;4476085;32;20100;-74
2022/05/12 03:57:23;;;;;;;0.82;0.50;;;19.40;55.90;;;;;;4474964;32;20092;-74
2022/05/12 03:59:50;;;;;;;1.85;0.68;;;19.40;55.90;;;;;;4474985;32;20085;-74
2022/05/12 04:02:18;;;;;;;1.80;0.50;;;19.30;55.90;;;;;;4475621;32;20089;-75
2022/05/12 04:04:46;;;;;;;1.05;0.40;;;19.30;55.90;;;;;;4475697;32;20580;-74
2022/05/12 04:07:14;;;;;;;1.58;0.50;;;19.30;55.90;;;;;;4476183;32;20089;-75
2022/05/12 04:09:41;;;;;;;1.25;0.35;;;19.30;55.90;;;;;;4476764;32;20521;-75
2022/05/12 04:12:09;;;;;;;1.02;0.40;;;19.30;55.90;;;;;;4478433;32;20203;-75
2022/05/12 04:14:39;;;;;;;0.95;0.55;;;19.30;55.90;;;;;;4478913;31;20140;-75
2022/05/12 04:17:06;;;;;;;1.35;0.50;;;19.30;55.90;;;;;;4478501;31;20418;-75
2022/05/12 04:19:32;;;;;;;1.73;0.63;;;19.30;55.90;;;;;;4478813;31;20080;-75
2022/05/12 04:21:58;;;;;;;0.90;0.43;;;19.30;55.90;;;;;;4478346;32;20065;-75
2022/05/12 04:24:24;;;;;;;1.48;0.50;;;19.30;55.90;;;;;;4478757;32;20383;-75
2022/05/12 04:26:50;;;;;;;0.73;0.40;;;19.30;55.90;;;;;;4478449;31;20088;-75
2022/05/12 04:29:16;;;;;;;1.40;0.38;;;19.30;55.90;;;;;;4477233;32;20075;-75
2022/05/12 04:31:42;;;;;;;1.08;0.57;;;19.30;55.90;;;;;;4478228;31;20065;-75
2022/05/12 04:37:13;;;;;;;;;;;19.20;55.80;;;;;;4461117;32;20110;-75
2022/05/12 04:39:38;;;;;;;0.95;0.50;;;19.30;55.80;;;;;;4460064;32;19970;-75
2022/05/12 04:42:04;;;;;;;1.92;0.50;;;19.20;55.90;;;;;;4468686;31;20199;-74
2022/05/12 04:44:30;;;;;;;1.23;0.30;;;19.20;55.90;;;;;;4478394;31;20077;-74
2022/05/12 04:46:56;;;;;;;1.27;0.40;;;19.20;55.80;;;;;;4478299;32;20085;-75
2022/05/12 04:49:22;;;;;;;0.98;0.40;;;19.20;55.80;;;;;;4478441;31;20076;-74
2022/05/12 04:51:49;;;;;;;0.55;0.35;;;19.20;55.80;;;;;;4477374;32;20069;-74
2022/05/12 04:54:15;;;;;;;1.05;0.40;;;19.20;55.80;;;;;;4478643;31;20077;-74
2022/05/12 04:56:42;;;;;;;1.42;0.43;;;19.20;55.80;;;;;;4478176;31;20095;-74
2022/05/12 04:59:09;;;;;;;0.80;0.30;;;19.30;55.90;;;;;;4478347;31;20081;-74
2022/05/12 05:01:35;;;;;;;1.25;0.35;;;19.20;55.80;;;;;;4478284;31;20461;-74
2022/05/12 05:04:03;;;;;;;1.85;0.50;;;19.20;55.80;;;;;;4478359;31;20077;-75
2022/05/12 05:06:32;;;;;;;2.42;0.50;;;19.20;55.80;;;;;;4478322;31;20093;-75
2022/05/12 05:08:58;;;;;;;0.85;0.40;;;19.20;55.80;;;;;;4477914;31;20223;-75
2022/05/12 05:11:25;;;;;;;1.20;0.60;;;19.20;55.80;;;;;;4478012;31;20093;-74
2022/05/12 05:13:51;;;;;;;0.65;0.30;;;19.20;55.80;;;;;;4477950;31;20147;-74
2022/05/12 05:16:17;;;;;;;1.23;0.50;;;19.20;55.80;;;;;;4477989;32;20069;-74
2022/05/12 05:18:45;;;;;;;1.52;0.30;;;19.20;55.80;;;;;;4477962;31;20093;-74
2022/05/12 05:21:10;;;;;;;0.95;0.50;;;19.20;55.80;;;;;;4476916;32;20533;-74
2022/05/12 05:23:39;;;;;;;1.60;0.38;;;19.20;55.80;;;;;;4478188;32;20069;-74
2022/05/12 05:26:07;;;;;;;1.25;0.50;;;19.20;55.80;;;;;;4477448;32;20089;-74
2022/05/12 05:28:34;;;;;;;1.10;0.60;;;19.20;55.80;;;;;;4478160;31;20125;-76
2022/05/12 05:31:00;;;;;;;1.25;0.32;;;19.30;55.90;;;;;;4477966;32;20066;-74
2022/05/12 05:33:26;;;;;;;1.23;0.60;;;19.20;55.70;;;;;;4477634;31;20073;-75
2022/05/12 05:35:52;;;;;;;1.17;0.40;;;19.20;55.70;;;;;;4477103;31;20525;-74
2022/05/12 05:38:18;;;;;;;1.58;0.50;;;19.30;55.80;;;;;;4477456;31;20150;-74
2022/05/12 05:40:44;;;;;;;0.95;0.40;;;19.30;55.80;;;;;;4476779;31;20175;-74
2022/05/12 05:43:10;;;;;;;0.90;0.50;;;19.30;55.80;;;;;;4476296;32;20061;-74
2022/05/12 05:45:36;;;;;;;1.05;0.50;;;19.30;55.70;;;;;;4477486;31;20143;-74
2022/05/12 05:48:04;;;;;;;0.90;0.55;;;19.30;55.70;;;;;;4477502;32;20073;-74
2022/05/12 05:53:28;;;;;;;1.00;0.40;;;19.30;55.70;;;;;;4477720;32;20094;-74
2022/05/12 05:56:00;;;;;;;1.48;0.50;;;19.30;55.70;;;;;;4477253;31;20235;-74
2022/05/12 05:58:28;;;;;;;1.50;0.50;;;19.30;55.60;;;;;;4477504;31;20089;-74
2022/05/12 06:00:54;;;;;;;1.25;0.50;;;19.30;55.60;;;;;;4477550;31;20073;-74
2022/05/12 06:03:21;;;;;;;1.15;0.40;;;19.30;55.60;;;;;;4477294;32;20223;-74
2022/05/12 06:05:48;;;;;;;0.95;0.40;;;19.30;55.60;;;;;;4476145;32;20096;-74
2022/05/12 06:08:17;;;;;;;1.30;0.45;;;19.30;55.60;;;;;;4477373;31;20112;-74
2022/05/12 06:10:45;;;;;;;1.92;0.52;;;19.40;55.60;;;;;;4477400;32;20192;-74
2022/05/12 06:13:12;;;;;;;0.60;0.30;;;19.40;55.60;;;;;;4476726;31;20092;-73
2022/05/12 06:15:39;;;;;;;0.63;0.28;;;19.40;55.60;;;;;;4476979;31;20168;-74
2022/05/12 06:18:17;;;;;;;0.70;0.40;;;19.40;55.50;;;;;;4476965;31;20199;-73
2022/05/12 06:20:44;;;;;;;0.77;0.40;;;19.40;55.50;;;;;;4477155;31;20222;-74
2022/05/12 06:23:12;;;;;;;0.93;0.40;;;19.40;55.50;;;;;;4477144;32;20073;-74
2022/05/12 06:25:38;;;;;;;1.10;0.50;;;19.40;55.50;;;;;;4475883;32;20489;-74
2022/05/12 06:28:05;;;;;;;0.68;0.30;;;19.40;55.50;;;;;;4477148;32;20203;-73
2022/05/12 06:30:30;;;;;;;1.88;0.50;;;19.40;55.40;;;;;;4476876;31;20089;-73
2022/05/12 06:32:57;;;;;;;2.22;0.60;;;19.40;55.50;;;;;;4477060;32;20062;-72
2022/05/12 06:35:25;;;;;;;2.15;0.20;;;19.50;55.60;;;;;;4477127;32;20645;-73
2022/05/12 06:37:52;;;;;;;5.05;0.47;;;19.50;55.60;;;;;;4476569;32;20092;-72
2022/05/12 06:40:19;;;;;;;1.00;0.43;;;19.60;55.80;;;;;;4476510;32;20617;-72
2022/05/12 06:42:45;;;;;;;1.65;0.40;;;19.60;55.80;;;;;;4476298;32;20518;-73
2022/05/12 06:45:15;;;;;;;1.45;0.52;;;19.70;55.90;;;;;;4476496;31;20425;-73
2022/05/12 06:47:50;;;;;;;4.30;0.52;;;19.70;55.90;;;;;;4476779;31;20101;-72
2022/05/12 06:50:20;;;;;;;3.08;0.85;;;19.70;56.10;;;;;;4476528;31;20065;-73
2022/05/12 06:52:47;;;;;;;2.38;0.82;;;19.80;56.30;;;;;;4476517;32;20088;-73
2022/05/12 06:55:14;;;;;;;2.10;0.70;;;19.80;56.40;;;;;;4476653;31;20070;-72
2022/05/12 06:57:39;;;;;;;2.13;0.63;;;19.90;56.30;;;;;;4476359;31;20612;-75
2022/05/12 07:00:08;;;;;;;4.22;0.88;;;19.90;56.40;;;;;;4476499;32;20097;-72
2022/05/12 07:02:35;;;;;;;5.15;1.00;;;20.00;56.50;;;;;;4476376;31;20538;-73
2022/05/12 07:05:01;;;;;;;5.30;0.80;;;20.00;56.50;;;;;;4476507;32;20210;-73
2022/05/12 07:07:28;;;;;;;7.78;1.17;;;20.00;56.70;;;;;;4476117;32;20077;-73
2022/05/12 07:09:55;;;;;;;7.30;0.70;;;20.00;56.70;;;;;;4476421;31;20708;-73
2022/05/12 07:12:22;;;;;;;2.22;0.75;;;20.10;56.60;;;;;;4476186;32;20137;-72
2022/05/12 07:14:49;;;;;;;3.88;0.80;;;20.10;56.70;;;;;;4476451;32;20066;-73
2022/05/12 07:17:24;;;;;;;6.18;1.20;;;20.20;56.70;;;;;;4475077;32;20503;-72
2022/05/12 07:19:52;;;;;;;4.55;1.27;;;20.20;56.90;;;;;;4476444;32;20083;-72
2022/05/12 07:27:49;;;;;;;3.00;0.80;;;20.30;56.80;;;;;;4476319;32;20085;-73
2022/05/12 07:30:15;;;;;;;7.30;1.33;;;20.30;56.70;;;;;;4475981;32;20408;-73
2022/05/12 07:32:41;;;;;;;4.78;1.08;;;20.30;56.70;;;;;;4476298;32;20080;-73
2022/05/12 07:35:08;;;;;;;6.38;1.23;;;20.40;56.90;;;;;;4476267;32;20223;-73
2022/05/12 07:37:34;;;;;;;7.78;1.40;;;20.40;56.90;;;;;;4476213;32;20109;-74
2022/05/12 07:40:00;;;;;;;3.08;0.95;;;20.50;56.90;;;;;;4476489;32;20070;-73
2022/05/12 07:42:26;;;;;;;7.72;1.58;;;20.50;57.00;;;;;;4475985;32;20066;-73
2022/05/12 07:44:52;;;;;;;5.68;1.60;;;20.50;57.00;;;;;;4477743;32;20077;-72
2022/05/12 07:47:19;;;;;;;9.43;1.45;;;20.50;57.90;;;;;;4479204;31;20061;-73
2022/05/12 07:49:46;;;;;;;4.60;1.35;;;20.50;56.90;;;;;;4479160;31;20073;-74
2022/05/12 07:52:14;;;;;;;4.53;1.45;;;20.60;56.90;;;;;;4478957;31;20096;-74
2022/05/12 07:54:39;;;;;;;6.20;1.50;;;20.60;56.80;;;;;;4479231;32;20073;-74
2022/05/12 07:57:06;;;;;;;5.50;1.45;;;20.60;56.80;;;;;;4477739;32;20076;-73
2022/05/12 07:59:32;;;;;;;7.47;1.60;;;20.60;56.80;;;;;;4479088;31;20092;-73
2022/05/12 08:01:59;;;;;;;7.90;1.67;;;20.60;56.70;;;;;;4479188;31;20077;-74
2022/05/12 08:04:25;;;;;;;4.78;1.48;;;20.60;56.70;;;;;;4479642;32;20394;-75
2022/05/12 08:06:51;;;;;;;4.68;1.50;;;20.70;56.60;;;;;;4479139;32;20092;-75
2022/05/12 08:09:18;;;;;;;7.85;1.63;;;20.70;56.50;;;;;;4478968;32;20403;-75
2022/05/12 08:11:44;;;;;;;9.10;1.90;;;20.70;56.40;;;;;;4478640;32;20259;-74
2022/05/12 08:14:10;;;;;;;5.63;1.20;;;20.70;56.40;;;;;;4477874;32;20062;-74
2022/05/12 08:16:37;;;;;;;4.60;1.42;;;20.70;56.40;;;;;;4477666;32;20510;-75
2022/05/12 08:19:03;;;;;;;5.82;1.60;;;20.70;56.30;;;;;;4478689;31;20214;-77
2022/05/12 08:21:30;;;;;;;6.28;1.63;;;20.70;56.30;;;;;;4478870;32;20100;-74
2022/05/12 08:23:57;;;;;;;11.77;1.90;;;20.70;56.20;;;;;;4478679;32;20612;-74
2022/05/12 08:26:24;;;;;;;5.38;1.77;;;20.80;56.20;;;;;;4478443;31;20411;-73
2022/05/12 08:28:50;;;;;;;8.05;1.95;;;20.80;56.10;;;;;;4478643;31;20224;-73
2022/05/12 08:31:20;;;;;;;7.05;1.92;;;20.80;56.00;;;;;;4478553;31;20403;-73
2022/05/12 08:33:52;;;;;;;5.72;1.45;;;20.80;55.80;;;;;;4478953;31;20144;-74
2022/05/12 08:36:17;;;;;;;5.95;1.70;;;20.90;55.70;;;;;;4478337;31;20137;-74
2022/05/12 08:38:44;;;;;;;6.18;1.77;;;20.90;55.60;;;;;;4478650;32;20512;-74
2022/05/12 08:41:28;;;;;;;6.35;1.65;;;20.90;55.60;;;;;;4478173;31;20084;-73
2022/05/12 08:44:02;;;;;;;5.82;1.45;;;20.90;55.40;;;;;;4478889;32;20125;-74
2022/05/12 08:47:00;;;;;;;4.47;1.23;;;20.90;55.30;;;;;;4478314;31;20073;-73
2022/05/12 08:49:29;;;;;;;6.50;1.48;;;20.90;55.00;;;;;;4478454;31;20077;-74
2022/05/12 08:52:08;;;;;;;6.88;1.55;;;21.00;55.10;;;;;;4477349;32;20131;-73
2022/05/12 08:54:36;;;;;;;4.78;1.38;;;20.90;54.80;;;;;;4478471;31;20136;-74
2022/05/12 08:57:05;;;;;;;6.70;1.20;;;21.00;54.80;;;;;;4477256;32;20502;-73
2022/05/12 08:59:33;;;;;;;7.05;1.58;;;21.00;54.70;;;;;;4478658;31;20097;-72
2022/05/12 09:02:16;;;;;;;6.55;1.75;;;21.00;54.60;;;;;;4478189;31;20085;-75
2022/05/12 09:04:54;;;;;;;7.95;1.45;;;21.00;54.50;;;;;;4477864;31;20092;-75
2022/05/12 09:07:27;;;;;;;5.82;1.42;;;21.10;54.40;;;;;;4478228;31;20144;-73
2022/05/12 09:10:27;;;;;;;7.22;1.55;;;21.10;54.40;;;;;;4478454;31;20413;-73
2022/05/12 09:13:10;;;;;;;7.53;1.42;;;21.10;54.00;;;;;;4468911;31;20199;-74
2022/05/12 09:15:40;;;;;;;9.73;1.50;;;21.10;54.00;;;;;;4478424;31;20178;-70
2022/05/12 09:18:16;;;;;;;6.68;1.40;;;21.10;54.10;;;;;;4478307;31;20050;-71
2022/05/12 09:20:42;;;;;;;7.72;1.40;;;21.10;53.90;;;;;;4478412;31;20085;-74
2022/05/12 09:23:08;;;;;;;6.03;1.80;;;21.10;53.80;;;;;;4478015;31;20085;-74
2022/05/12 09:25:45;;;;;;;5.53;1.40;;;21.10;53.60;;;;;;4477900;31;20097;-74
2022/05/12 09:28:27;;;;;;;5.97;1.27;;;21.10;53.40;;;;;;4478043;31;20078;-74
2022/05/12 09:30:55;;;;;;;5.13;1.08;;;21.10;53.10;;;;;;4478124;32;20069;-75
2022/05/12 09:33:25;;;;;;;6.35;1.10;;;21.10;53.10;;;;;;4477793;31;20587;-76
2022/05/12 09:35:57;;;;;;;5.45;1.27;;;21.10;53.00;;;;;;4477716;31;20121;-74
2022/05/12 09:38:26;;;;;;;5.05;1.38;;;21.10;52.80;;;;;;4477558;32;20524;-75
2022/05/12 09:40:53;;;;;;;5.82;1.33;;;21.10;52.80;;;;;;4477517;31;20167;-75
2022/05/12 09:43:31;;;;;;;5.70;1.40;;;21.10;52.90;;;;;;4477950;32;20211;-75
2022/05/12 09:46:18;;;;;;;4.10;1.40;;;21.10;52.70;;;;;;4477306;31;20081;-74
2022/05/12 09:48:48;;;;;;;6.78;1.20;;;21.10;52.70;;;;;;4477643;31;20120;-74
2022/05/12 09:51:30;;;;;;;5.18;1.20;;;21.10;52.70;;;;;;4477557;31;20518;-72
2022/05/12 09:54:23;;;;;;;6.60;1.27;;;21.10;52.60;;;;;;4477305;31;20065;-78
2022/05/12 09:57:17;;;;;;;7.03;1.20;;;21.10;52.60;;;;;;4477264;31;20415;-77
2022/05/12 09:59:57;;;;;;;4.50;1.10;;;21.10;52.40;;;;;;4477123;32;20517;-80
2022/05/12 10:08:19;;;;;;;5.50;1.10;;;21.10;51.30;;;;;;4477247;32;20065;-74
2022/05/12 10:10:48;;;;;;;6.18;1.05;;;21.10;50.90;;;;;;4477551;31;20105;-77
2022/05/12 10:13:48;;;;;;;3.63;1.35;;;21.20;50.80;;;;;;4477342;32;20127;-76
2022/05/12 10:16:20;;;;;;;2.95;0.98;;;21.20;50.30;;;;;;4477258;31;20062;-77
2022/05/12 10:18:51;;;;;;;6.25;1.00;;;21.20;50.30;;;;;;4477185;31;20077;-77
2022/05/12 10:21:38;;;;;;;3.25;1.15;;;21.20;50.20;;;;;;4477100;32;20069;-77
2022/05/12 10:24:19;;;;;;;2.78;0.88;;;21.20;50.10;;;;;;4476795;31;20097;-76
2022/05/12 10:26:56;;;;;;;3.40;1.05;;;21.10;50.10;;;;;;4477111;31;20104;-77
2022/05/12 10:29:32;;;;;;;3.67;0.95;;;21.10;50.10;;;;;;4477297;32;20096;-79
2022/05/12 10:32:13;;;;;;;3.13;0.95;;;21.10;50.00;;;;;;4477087;31;20075;-76
2022/05/12 10:35:01;;;;;;;3.80;1.35;;;21.20;49.20;;;;;;4477256;31;20074;-75
2022/05/12 10:38:05;;;;;;;8.05;1.00;;;21.20;48.70;;;;;;4477139;31;20406;-76
2022/05/12 10:40:44;;;;;;;5.10;1.00;;;21.20;48.60;;;;;;4476590;31;20166;-76
2022/05/12 10:43:22;;;;;;;8.13;1.23;;;21.20;48.30;;;;;;4477206;32;20219;-76
2022/05/12 10:46:11;;;;;;;4.28;0.90;;;21.20;48.50;;;;;;4476998;31;20069;-81
2022/05/12 10:48:52;;;;;;;4.75;1.00;;;21.20;48.70;;;;;;4476770;31;20414;-83
2022/05/12 10:51:29;;;;;;;4.60;1.15;;;21.20;49.00;;;;;;4476422;31;20178;-79
2022/05/12 10:54:16;;;;;;;4.10;0.88;;;21.20;49.90;;;;;;4476470;31;20588;-80
2022/05/12 10:57:14;;;;;;;3.88;1.00;;;21.20;48.20;;;;;;4476678;31;20136;-76
2022/05/12 10:59:57;;;;;;;4.80;1.20;;;21.20;47.80;;;;;;4476940;31;20083;-75
2022/05/12 11:02:32;;;;;;;6.82;0.80;;;21.20;47.40;;;;;;4477087;31;20058;-76
2022/05/12 11:05:26;;;;;;;4.68;0.85;;;21.20;47.30;;;;;;4476904;31;20077;-75
2022/05/12 11:08:16;;;;;;;4.07;1.05;;;21.20;47.30;;;;;;4476732;32;20636;-75
2022/05/12 11:10:51;;;;;;;5.57;0.90;;;21.20;47.50;;;;;;4476775;32;20418;-74
2022/05/12 11:13:46;;;;;;;3.97;0.77;;;21.20;47.60;;;;;;4476896;32;20065;-76
2022/05/12 11:16:17;;;;;;;3.40;0.57;;;21.30;47.70;;;;;;4472598;32;20085;-76
2022/05/12 11:19:07;;;;;;;1.60;0.47;;;21.30;47.70;;;;;;4476039;32;20081;-79
2022/05/12 11:21:41;;;;;;;5.60;0.98;;;21.30;47.30;;;;;;4476492;32;20089;-75
2022/05/12 11:24:33;;;;;;;3.55;0.90;;;21.30;46.70;;;;;;4476865;32;20096;-78
2022/05/12 11:27:02;;;;;;;5.97;1.20;;;21.30;46.70;;;;;;4476284;32;20077;-77
2022/05/12 11:29:54;;;;;;;2.97;0.60;;;21.30;46.80;;;;;;4475931;32;20096;-77
2022/05/12 11:32:29;;;;;;;1.88;0.47;;;21.30;46.80;;;;;;4476444;32;20379;-78
2022/05/12 11:35:00;;;;;;;2.33;0.75;;;21.30;47.10;;;;;;4476266;32;20254;-77
2022/05/12 11:37:50;;;;;;;2.97;0.70;;;21.30;47.10;;;;;;4476845;32;20081;-78
2022/05/12 11:40:43;;;;;;;2.15;0.60;;;21.20;48.20;;;;;;4476649;32;20127;-78
2022/05/12 11:46:30;;;;;;;2.95;0.80;;;21.20;47.30;;;;;;4476478;32;20121;-79
2022/05/12 11:49:00;;;;;;;3.67;1.00;;;21.20;47.60;;;;;;4476240;32;20084;-77
2022/05/12 11:51:35;;;;;;;2.30;0.70;;;21.20;47.60;;;;;;4476077;32;20116;-78
2022/05/12 11:54:07;;;;;;;2.53;0.70;;;21.20;47.90;;;;;;4476635;32;20170;-78
2022/05/12 11:56:40;;;;;;;1.75;0.50;;;21.20;47.90;;;;;;4476483;32;20529;-79
2022/05/12 11:59:26;;;;;;;3.97;1.00;;;21.20;47.90;;;;;;4476214;32;20140;-78
2022/05/12 12:02:27;;;;;;;3.10;0.85;;;21.20;48.00;;;;;;4476465;32;20278;-80
2022/05/12 12:04:58;;;;;;;3.15;0.90;;;21.20;48.20;;;;;;4476025;32;20081;-80
2022/05/12 12:07:33;;;;;;;2.80;0.57;;;21.20;48.30;;;;;;4476439;32;20503;-80
2022/05/12 12:10:13;;;;;;;2.78;0.60;;;21.20;48.20;;;;;;4476046;32;20414;-81
2022/05/12 12:12:42;;;;;;;2.47;0.70;;;21.20;48.20;;;;;;4476161;32;20065;-79
2022/05/12 12:15:10;;;;;;;4.15;0.88;;;21.20;48.10;;;;;;4476063;32;20081;-77
2022/05/12 12:17:37;;;;;;;5.20;1.00;;;21.20;47.90;;;;;;4475966;32;20096;-77
2022/05/12 12:20:29;;;;;;;2.67;0.70;;;21.20;47.90;;;;;;4475998;32;20418;-78
2022/05/12 12:23:29;;;;;;;2.15;0.60;;;21.30;47.80;;;;;;4476365;32;20438;-80
2022/05/12 12:26:24;;;;;;;3.00;0.77;;;21.30;47.80;;;;;;4472455;32;20585;-80
2022/05/12 12:29:08;;;;;;;3.85;0.90;;;21.30;47.70;;;;;;4476285;32;20089;-80
2022/05/12 12:31:37;;;;;;;;;;;21.30;47.70;;;;;;4479083;32;20079;-80
2022/05/12 12:34:26;;;;;;;2.80;0.77;;;21.30;47.80;;;;;;4478593;31;20098;-82
2022/05/12 12:37:00;;;;;;;3.25;0.60;;;21.30;47.80;;;;;;4478671;31;20557;-83
2022/05/12 12:39:36;;;;;;;1.42;0.50;;;21.30;47.80;;;;;;4478751;32;20510;-80
2022/05/12 12:42:19;;;;;;;3.70;0.85;;;21.30;47.70;;;;;;4478036;32;20162;-80
2022/05/12 12:44:54;;;;;;;2.47;0.70;;;21.30;47.80;;;;;;4478667;32;20109;-80
2022/05/12 12:47:39;;;;;;;2.33;0.60;;;21.30;47.80;;;;;;4478959;32;20077;-79
2022/05/12 12:50:32;;;;;;;2.97;1.00;;;21.30;47.60;;;;;;4478252;31;20128;-78
2022/05/12 12:52:58;;;;;;;1.63;0.55;;;21.30;47.70;;;;;;4479125;32;20081;-79
2022/05/12 12:58:17;;;;;;;2.15;0.73;;;21.30;47.90;;;;;;4478668;32;20073;-81
2022/05/12 13:00:43;;;;;;;4.30;0.57;;;21.30;48.00;;;;;;4478698;31;20073;-80
2022/05/12 13:03:21;;;;;;;2.88;0.60;;;21.30;48.10;;;;;;4478486;32;20088;-80
2022/05/12 13:05:49;;;;;;;4.20;0.93;;;21.30;48.00;;;;;;4478332;31;20100;-81
2022/05/12 13:08:27;;;;;;;3.38;0.73;;;21.30;48.00;;;;;;4478244;32;20113;-80
2022/05/12 13:11:00;;;;;;;3.03;0.55;;;21.30;47.90;;;;;;4478660;31;20517;-80
2022/05/12 13:13:27;;;;;;;4.47;0.88;;;21.30;48.00;;;;;;4477988;31;20215;-76
2022/05/12 13:16:03;;;;;;;1.83;0.52;;;21.30;48.10;;;;;;4478043;31;20077;-79
2022/05/12 13:18:43;;;;;;;4.57;1.00;;;21.20;48.10;;;;;;4478074;32;20085;-80
2022/05/12 13:21:23;;;;;;;4.15;0.73;;;21.20;48.10;;;;;;4478018;32;20517;-81
2022/05/12 13:24:08;;;;;;;2.28;0.45;;;21.20;48.20;;;;;;4478191;32;20487;-79
2022/05/12 13:26:36;;;;;;;2.70;0.60;;;21.20;48.20;;;;;;4478398;31;20069;-79
2022/05/12 13:29:05;;;;;;;4.03;0.88;;;21.20;48.30;;;;;;4477914;31;20081;-80
2022/05/12 13:31:35;;;;;;;2.28;0.70;;;21.20;48.10;;;;;;4477714;31;20073;-81